地図

経路データ

SID SEASON NUMBER BASIN SUBBASIN NAME ISO_TIME NATURE LAT LON WMO_WIND WMO_PRES WMO_AGENCY TRACK_TYPE DIST2LAND LANDFALL IFLAG USA_AGENCY USA_ATCF_ID USA_LAT USA_LON USA_RECORD USA_STATUS USA_WIND USA_PRES USA_SSHS USA_R34_NE USA_R34_SE USA_R34_SW USA_R34_NW USA_R50_NE USA_R50_SE USA_R50_SW USA_R50_NW USA_R64_NE USA_R64_SE USA_R64_SW USA_R64_NW USA_POCI USA_ROCI USA_RMW USA_EYE TOKYO_LAT TOKYO_LON TOKYO_GRADE TOKYO_WIND TOKYO_PRES TOKYO_R50_DIR TOKYO_R50_LONG TOKYO_R50_SHORT TOKYO_R30_DIR TOKYO_R30_LONG TOKYO_R30_SHORT TOKYO_LAND CMA_LAT CMA_LON CMA_CAT CMA_WIND CMA_PRES HKO_LAT HKO_LON HKO_CAT HKO_WIND HKO_PRES NEWDELHI_LAT NEWDELHI_LON NEWDELHI_GRADE NEWDELHI_WIND NEWDELHI_PRES NEWDELHI_CI NEWDELHI_DP NEWDELHI_POCI REUNION_LAT REUNION_LON REUNION_TYPE REUNION_WIND REUNION_PRES REUNION_TNUM REUNION_CI REUNION_RMW REUNION_R34_NE REUNION_R34_SE REUNION_R34_SW REUNION_R34_NW REUNION_R50_NE REUNION_R50_SE REUNION_R50_SW REUNION_R50_NW REUNION_R64_NE REUNION_R64_SE REUNION_R64_SW REUNION_R64_NW BOM_LAT BOM_LON BOM_TYPE BOM_WIND BOM_PRES BOM_TNUM BOM_CI BOM_RMW BOM_R34_NE BOM_R34_SE BOM_R34_SW BOM_R34_NW BOM_R50_NE BOM_R50_SE BOM_R50_SW BOM_R50_NW BOM_R64_NE BOM_R64_SE BOM_R64_SW BOM_R64_NW BOM_ROCI BOM_POCI BOM_EYE BOM_POS_METHOD BOM_PRES_METHOD NADI_LAT NADI_LON NADI_CAT NADI_WIND NADI_PRES WELLINGTON_LAT WELLINGTON_LON WELLINGTON_WIND WELLINGTON_PRES DS824_LAT DS824_LON DS824_STAGE DS824_WIND DS824_PRES TD9636_LAT TD9636_LON TD9636_STAGE TD9636_WIND TD9636_PRES TD9635_LAT TD9635_LON TD9635_WIND TD9635_PRES TD9635_ROCI NEUMANN_LAT NEUMANN_LON NEUMANN_CLASS NEUMANN_WIND NEUMANN_PRES MLC_LAT MLC_LON MLC_CLASS MLC_WIND MLC_PRES USA_GUST BOM_GUST BOM_GUST_PER REUNION_GUST REUNION_GUST_PER USA_SEAHGT USA_SEARAD_NE USA_SEARAD_SE USA_SEARAD_SW USA_SEARAD_NW STORM_SPEED STORM_DIR
1985240N09198 1985 77 EP CP SKIP 1985-08-28 00:00:00 NR 8.60000 197.500 main 1366 1366 __________O___ -1 8.60000 -162.500 0 12 269
1985240N09198 1985 77 EP CP SKIP 1985-08-28 03:00:00 NR 8.59365 196.908 main 1402 1402 __________P___ -1 8.59365 -163.092 0 12 270
1985240N09198 1985 77 EP CP SKIP 1985-08-28 06:00:00 NR 8.59208 196.314 main 1440 1440 __________P___ -1 8.59208 -163.686 0 12 270
1985240N09198 1985 77 EP CP SKIP 1985-08-28 09:00:00 NR 8.60097 195.717 main 1480 1480 __________P___ -1 8.60097 -164.283 0 12 272
1985240N09198 1985 77 EP CP SKIP 1985-08-28 12:00:00 NR 8.62598 195.113 main 1521 1521 __________P___ -1 8.62598 -164.887 0 12 273
1985240N09198 1985 77 EP CP SKIP 1985-08-28 15:00:00 NR 8.67276 194.502 main 1556 1556 __________P___ -1 8.67276 -165.498 0 12 276
1985240N09198 1985 77 EP CP SKIP 1985-08-28 18:00:00 NR 8.74695 193.881 main 1600 1600 __________P___ -1 8.74695 -166.119 0 13 278
1985240N09198 1985 77 EP CP SKIP 1985-08-28 21:00:00 NR 8.85416 193.248 main 1638 1638 __________P___ -1 8.85416 -166.752 0 13 281
1985240N09198 1985 77 EP CP SKIP 1985-08-29 00:00:00 NR 9.00000 192.600 main 1666 1666 __________O___ -1 9.00000 -167.400 0 13 284
1985240N09198 1985 77 EP CP SKIP 1985-08-29 03:00:00 NR 9.18723 191.937 main 1684 1684 __________P___ -1 9.18723 -168.063 0 14 287
1985240N09198 1985 77 EP CP SKIP 1985-08-29 06:00:00 NR 9.40724 191.262 main 1700 1700 __________P___ -1 9.40724 -168.738 0 14 289
1985240N09198 1985 77 EP CP SKIP 1985-08-29 09:00:00 NR 9.64861 190.582 main 1725 1722 __________P___ -1 9.64861 -169.418 0 14 290
1985240N09198 1985 77 EP CP SKIP 1985-08-29 12:00:00 NR 9.90000 189.900 main 1743 1741 __________O___ -1 9.90000 -170.100 0 14 291
1985240N09198 1985 77 EP CP SKIP 1985-08-29 15:00:00 NR 10.1334 189.277 main 1767 1766 __________P___ -1 10.1334 -170.723 0 13 291
1985240N09198 1985 77 EP CP SKIP 1985-08-29 18:00:00 NR 10.3755 188.646 main 1792 1792 __________P___ -1 10.3755 -171.354 0 14 291
1985240N09198 1985 77 EP CP SKIP 1985-08-29 21:00:00 NR 10.6299 187.967 main 1821 1820 __________P___ -1 10.6299 -172.033 0 15 290
1985240N09198 1985 77 EP CP SKIP 1985-08-30 00:00:00 NR 10.9000 187.200 main 1859 1859 __________O___ -1 10.9000 -172.800 0 17 288
1985240N09198 1985 77 EP CP SKIP 1985-08-30 03:00:00 NR 11.1735 186.305 main 1909 1909 __________P___ -1 11.1735 -173.695 0 19 286
1985240N09198 1985 77 EP CP SKIP 1985-08-30 06:00:00 NR 11.4100 185.375 25 cphc main 1970 1970 O_________P___ cphc 11.2000 -174.400 25 -1 11.4625 -174.681 0 21 285
1985240N09198 1985 77 EP CP SKIP 1985-08-30 09:00:00 NR 11.7137 184.271 main 2044 2044 P_________P___ 11.6014 -175.732 27 -1 11.7701 -175.727 0 25 287
1985240N09198 1985 77 EP CP SKIP 1985-08-30 12:00:00 TS 12.1375 182.900 30 cphc main 2144 2144 O_O_______O___ cphc 12.0000 -177.000 30 -1 12.7000 181.400 1 29 1000 12.1000 -176.800 1 27 287
1985240N09198 1985 77 EP CP SKIP 1985-08-30 15:00:00 TS 12.5094 181.667 main 2230 2230 P_P_______P___ 12.3994 -178.153 32 -1 12.7278 -179.302 1 29 1000 12.4547 -177.942 1 24 286
1985240N09198 1985 77 EP CP SKIP 1985-08-30 18:00:00 TS 12.7818 180.574 35 cphc main 2317 2317 OOO_______P___ jtwc_wp WP151985 12.8000 -179.200 35 0 12.5000 180.500 7 1002 0 0 0 12.8000 180.000 1 29 1000 12.8296 -179.091 1 21 285
1985240N09198 1985 77 WP MM SKIP 1985-08-30 21:00:00 TS 13.0563 179.625 main 2397 2397 PPP_______P___ WP151985 13.1998 179.790 35 0 12.7760 179.633 7 1002 0 0 12.9674 179.320 1 29 1000 13.2144 179.830 1 18 290
1985240N09198 1985 77 WP MM SKIP 1985-08-31 00:00:00 TS 13.3933 178.847 1002 tokyo main 2459 2459 OOOO______O___ jtwc_wp WP151985 13.6000 178.900 35 0 13.0000 179.000 2 1002 0 0 0 13.3000 178.700 1 29 1000 13.5000 178.600 TD 25 1004 13.6000 178.900 2 35 15 300
1985240N09198 1985 77 WP MM SKIP 1985-08-31 03:00:00 TS 13.7994 178.285 main 2488 2488 PPPP______P___ WP151985 14.0073 178.110 37 0 13.1744 178.727 2 1001 0 0 13.8923 178.170 1 29 1000 14.0526 178.233 TD 27 1002 13.9972 178.160 2 37 13 311
1985240N09198 1985 77 WP MM SKIP 1985-08-31 06:00:00 TS 14.2458 177.833 1000 tokyo main 2519 2515 OOOO______P___ jtwc_wp WP151985 14.4000 177.500 40 0 13.5000 178.500 2 1000 0 0 0 14.5000 177.700 1 29 1000 14.5000 177.900 TD 30 1000 14.3925 177.580 2 40 12 316
1985240N09198 1985 77 WP MM SKIP 1985-08-31 09:00:00 TS 14.6859 177.390 main 2537 2537 PPPP______P___ WP151985 14.7722 177.075 42 0 14.2506 177.886 2 998 0 0 14.8599 177.227 1 33 998 14.7799 177.627 TD 32 998 14.7667 177.135 2 42 11 316
1985240N09198 1985 77 WP MM SKIP 1985-08-31 12:00:00 TS 15.0600 177.020 40 996 tokyo main 2561 2561 OOOO______O___ jtwc_wp WP151985 15.1000 176.800 45 0 15.0000 177.300 3 40 996 0 9 50 50 0 15.1000 176.800 2 38 996 15.0000 177.400 TS 35 997 15.1000 176.800 2 45 9 317
1985240N09198 1985 77 WP MM SKIP 1985-08-31 15:00:00 TS 15.3374 176.755 main 2573 2573 PPPP______P___ WP151985 15.3724 176.570 50 0 15.3246 177.097 3 42 994 0 9 75 75 15.3225 176.397 2 38 995 15.2999 177.200 TS 37 995 15.3674 176.511 2 47 7 319
1985240N09198 1985 77 WP MM SKIP 1985-08-31 18:00:00 TS 15.5588 176.564 45 992 tokyo main 2581 2581 OOOO______P___ jtwc_wp WP151985 15.6000 176.400 55 0 15.5000 177.000 3 45 992 0 9 100 100 0 15.5000 176.100 2 38 994 15.6000 177.000 TS 40 993 15.5941 176.321 2 50 6 320
1985240N09198 1985 77 WP MM SKIP 1985-08-31 21:00:00 TS 15.7728 176.380 main 2594 2594 PPPP______P___ WP151985 15.8000 176.235 55 0 15.7350 176.765 3 45 991 0 9 100 100 15.6799 175.947 2 43 992 15.8500 176.757 TS 42 991 15.7989 176.196 2 52 5 322
1985240N09198 1985 77 WP MM SKIP 1985-09-01 00:00:00 TS 15.9800 176.220 45 990 tokyo main 2607 2604 OOOO______O___ jtwc_wp WP151985 16.0000 176.100 55 0 16.0000 176.500 3 45 990 0 9 100 100 0 15.8000 175.900 3 48 990 16.1000 176.500 TS 45 990 16.0000 176.100 2 55 5 326
1985240N09198 1985 77 WP MM SKIP 1985-09-01 03:00:00 TS 16.2029 176.077 main 2610 2610 PPPP______P___ WP151985 16.2500 175.992 57 0 16.3500 176.243 3 45 987 0 9 100 100 15.7775 175.915 3 48 987 16.4000 176.243 TS 50 987 16.2371 175.990 2 57 5 329
1985240N09198 1985 77 WP MM SKIP 1985-09-01 06:00:00 TS 16.4345 175.940 45 985 tokyo main 2624 2617 OOOO______P___ jtwc_wp WP151985 16.5000 175.900 60 0 16.7000 176.000 3 45 985 0 9 100 100 0 15.8000 175.900 3 48 985 16.7000 176.000 STS 55 985 16.4723 175.900 2 60 6 330
1985240N09198 1985 77 WP MM SKIP 1985-09-01 09:00:00 TS 16.6883 175.783 main 2624 2624 PPPP______P___ WP151985 16.7150 175.807 62 0 16.9875 175.785 3 50 982 0 9 125 125 16.0625 175.730 3 53 982 16.9800 175.785 STS 57 982 16.6964 175.809 2 62 6 328
1985240N09198 1985 77 WP MM SKIP 1985-09-01 12:00:00 TS 16.9200 175.620 55 980 tokyo main 2638 2635 OOOO______O___ jtwc_wp WP151985 16.9000 175.700 65 1 17.2000 175.600 4 55 980 9 50 50 9 150 150 0 16.4000 175.500 3 58 979 17.2000 175.600 STS 60 980 16.9000 175.700 3 65 5 323
1985240N09198 1985 77 WP MM SKIP 1985-09-01 15:00:00 TS 17.0863 175.466 main 2642 2642 PPPP______P___ WP151985 17.0575 175.565 67 1 17.3074 175.450 4 55 985 9 50 50 9 150 150 16.6725 175.300 3 58 982 17.3225 175.442 STS 57 984 17.0714 175.571 3 63 4 315
1985240N09198 1985 77 WP MM SKIP 1985-09-01 18:00:00 TS 17.2244 175.303 55 990 tokyo main 2659 2656 OOOO______P___ jtwc_wp WP151985 17.2000 175.400 70 1 17.4000 175.300 4 55 990 9 50 50 9 150 150 0 16.9000 175.100 3 58 985 17.4000 175.300 STS 55 988 17.2222 175.417 3 62 4 311
1985240N09198 1985 77 WP MM SKIP 1985-09-01 21:00:00 TS 17.3739 175.121 main 2674 2674 PPPP______P___ WP151985 17.3575 175.215 65 1 17.6075 175.108 4 52 992 9 9 137 137 17.0425 174.885 3 53 988 17.4999 175.165 STS 52 992 17.3619 175.230 3 61 5 309
1985240N09198 1985 77 WP MM SKIP 1985-09-02 00:00:00 TS 17.5200 174.920 50 994 tokyo main 2691 2688 OOOO______O___ jtwc_wp WP151985 17.5000 175.000 60 0 17.8000 174.900 4 50 994 0 9 125 125 0 17.2000 174.700 3 48 992 17.6000 175.000 STS 50 996 17.5000 175.000 2 60 5 308
1985240N09198 1985 77 WP MM SKIP 1985-09-02 03:00:00 TS 17.6577 174.733 main 2706 2706 PPPP______P___ WP151985 17.5924 174.780 55 0 17.8573 174.737 4 45 995 0 9 112 112 17.4923 174.645 3 48 993 17.6924 174.787 STS 50 996 17.6542 174.714 2 57 5 304
1985240N09198 1985 77 WP MM SKIP 1985-09-02 06:00:00 TS 17.8015 174.478 40 996 tokyo main 2724 2724 OOOO______P___ jtwc_wp WP151985 17.7000 174.500 50 0 17.9000 174.500 3 40 996 0 9 100 100 0 17.8000 174.500 3 48 995 17.8000 174.500 STS 50 996 17.8077 174.388 2 55 7 297
1985240N09198 1985 77 WP MM SKIP 1985-09-02 09:00:00 TS 17.9821 174.072 main 2759 2759 PPPP______P___ WP151985 17.9001 174.108 50 0 18.0577 174.065 3 42 996 0 9 100 100 18.0379 174.030 3 48 995 17.9576 174.115 STS 50 996 17.9573 174.042 2 52 9 293
1985240N09198 1985 77 WP MM SKIP 1985-09-02 12:00:00 TS 18.1400 173.640 45 996 tokyo main 2808 2806 OOOO______O___ jtwc_wp WP151985 18.1000 173.700 50 0 18.2000 173.600 3 45 996 0 9 100 100 0 18.2000 173.500 3 48 995 18.1000 173.700 STS 50 996 18.1000 173.700 2 50 8 287
1985240N09198 1985 77 WP MM SKIP 1985-09-02 15:00:00 TS 18.2114 173.306 main 2836 2836 PPPP______P___ WP151985 18.2074 173.385 50 0 18.2073 173.277 3 47 995 0 9 100 80 18.2723 173.155 3 48 994 18.1499 173.335 STS 50 995 18.2199 173.380 2 50 6 282
1985240N09198 1985 77 WP MM SKIP 1985-09-02 18:00:00 TS 18.2670 173.014 50 994 tokyo main 2865 2865 OOOO______P___ jtwc_wp WP151985 18.3000 173.100 50 0 18.2000 173.000 4 50 994 0 1 100 60 0 18.3000 172.900 3 48 994 18.2000 173.000 STS 50 994 18.3349 173.070 2 50 6 285
1985240N09198 1985 77 WP MM SKIP 1985-09-02 21:00:00 TS 18.3635 172.726 main 2893 2893 PPPP______P___ WP151985 18.4425 172.793 50 0 18.2700 172.685 4 47 994 0 1 110 60 18.3199 172.692 3 48 994 18.3274 172.685 STS 50 994 18.4575 172.774 2 50 6 294
1985240N09198 1985 77 WP MM SKIP 1985-09-03 00:00:00 TS 18.5000 172.460 45 994 tokyo main 2911 2911 OOOO______O___ jtwc_wp WP151985 18.6000 172.500 50 0 18.4000 172.400 3 45 994 0 1 120 60 0 18.4000 172.500 3 48 994 18.5000 172.400 STS 50 994 18.6000 172.500 2 50 6 303
1985240N09198 1985 77 WP MM SKIP 1985-09-03 03:00:00 TS 18.6805 172.205 main 2937 2937 PPPP______P___ WP151985 18.7350 172.235 50 0 18.5700 172.170 3 45 994 0 1 135 105 18.6350 172.265 3 48 994 18.6925 172.120 STS 50 994 18.7702 172.237 2 50 6 311
1985240N09198 1985 77 WP MM SKIP 1985-09-03 06:00:00 TS 18.8925 171.980 45 994 tokyo main 2953 2953 OOOO______P___ jtwc_wp WP151985 18.9000 172.000 50 0 18.8000 172.000 3 45 994 0 9 150 150 0 18.9000 172.000 3 48 994 18.9000 171.900 STS 50 994 18.9624 171.997 2 50 6 317
1985240N09198 1985 77 WP MM SKIP 1985-09-03 09:00:00 TS 19.1042 171.785 main 2970 2970 PPPP______P___ WP151985 19.1350 171.785 50 0 19.0849 171.892 3 45 995 0 9 150 125 19.0426 171.685 3 48 994 19.0849 171.777 STS 47 995 19.1734 171.784 2 50 6 323
1985240N09198 1985 77 WP MM SKIP 1985-09-03 12:00:00 TS 19.3400 171.620 45 996 tokyo main 2986 2984 OOOO______O___ jtwc_wp WP151985 19.4000 171.600 50 0 19.4000 171.800 3 45 996 0 8 150 100 0 19.2000 171.400 3 48 994 19.3000 171.700 TS 45 996 19.4000 171.600 2 50 6 328
1985240N09198 1985 77 WP MM SKIP 1985-09-03 15:00:00 TS 19.6088 171.454 main 2990 2990 PPPP______P___ WP151985 19.6500 171.435 47 0 19.7000 171.643 3 45 997 0 8 150 100 19.4699 171.183 3 48 994 19.5925 171.593 TS 45 996 19.6315 171.418 2 48 6 334
1985240N09198 1985 77 WP MM SKIP 1985-09-03 18:00:00 TS 19.8955 171.334 45 998 tokyo main 3005 2999 OOOO______P___ jtwc_wp WP151985 19.9000 171.300 45 0 20.0000 171.500 3 45 998 0 8 150 100 0 19.8000 171.100 3 48 994 19.9000 171.500 TS 45 996 19.8774 171.268 2 47 6 344
1985240N09198 1985 77 WP MM SKIP 1985-09-03 21:00:00 TS 20.1829 171.285 main 2999 2996 PPPP______P___ WP151985 20.1500 171.178 45 0 20.3075 171.427 3 45 998 0 8 137 70 20.1651 171.227 3 48 994 20.1575 171.435 TS 42 996 20.1346 171.159 2 46 6 354
1985240N09198 1985 77 WP MM SKIP 1985-09-04 00:00:00 TS 20.4600 171.280 45 998 tokyo main 2994 2993 OOOO______O___ jtwc_wp WP151985 20.4000 171.100 45 0 20.6000 171.400 3 45 998 0 1 125 40 0 20.5000 171.400 3 48 994 20.4000 171.400 TS 40 997 20.4000 171.100 2 45 5 356
1985240N09198 1985 77 WP MM SKIP 1985-09-04 03:00:00 TS 20.7165 171.243 main 3001 2988 PPPP______P___ WP151985 20.6425 171.070 42 0 20.8799 171.348 3 42 998 0 1 125 40 20.7075 171.430 3 43 995 20.6575 171.363 TS 40 997 20.6953 171.007 2 45 5 358
1985240N09198 1985 77 WP MM SKIP 1985-09-04 06:00:00 TS 20.9587 171.255 40 998 tokyo main 2986 2983 OOOO______P___ jtwc_wp WP151985 20.9000 171.100 40 0 21.1000 171.400 3 40 998 0 1 125 40 0 20.9000 171.400 2 38 996 20.9000 171.400 TS 40 997 20.9934 170.976 2 45 5 8
1985240N09198 1985 77 WP MM SKIP 1985-09-04 09:00:00 TS 21.2117 171.314 main 2983 2960 PPPP______P___ WP151985 21.2296 171.110 42 0 21.2149 171.625 3 42 998 0 1 125 45 21.2221 171.245 2 38 997 21.1223 171.532 TS 40 997 21.2698 171.057 2 45 5 30
1985240N09198 1985 77 WP MM SKIP 1985-09-04 12:00:00 TS 21.4200 171.540 45 998 tokyo main 2960 2908 OOOO______O___ jtwc_wp WP151985 21.5000 171.300 45 0 21.3000 172.000 3 45 998 0 8 125 50 0 21.5000 171.300 2 38 998 21.3000 171.800 TS 40 997 21.5000 171.300 2 45 8 66
1985240N09198 1985 77 WP MM SKIP 1985-09-04 15:00:00 TS 21.5223 172.052 main 2897 2845 PPPP______P___ WP151985 21.5728 171.818 45 0 21.4353 172.492 3 45 998 0 8 112 50 21.5885 171.925 2 38 998 21.4150 172.198 TS 40 997 21.6001 171.825 2 45 11 81
1985240N09198 1985 77 WP MM SKIP 1985-09-04 18:00:00 TS 21.5918 172.680 45 998 tokyo main 2834 2782 OOOO______P___ jtwc_wp WP151985 21.6000 172.500 45 0 21.6000 173.000 3 45 998 0 8 100 50 0 21.6000 172.700 2 38 998 21.5000 172.700 TS 40 997 21.6589 172.499 2 45 11 82
1985240N09198 1985 77 WP MM SKIP 1985-09-04 21:00:00 TS 21.6759 173.233 main 2782 2729 PPPP______P___ WP151985 21.7052 173.180 45 0 21.7847 173.358 3 42 998 0 8 87 62 21.5970 173.181 2 38 998 21.5551 173.250 TS 37 999 21.7377 173.197 2 45 10 76
1985240N09198 1985 77 WP MM SKIP 1985-09-05 00:00:00 TS 21.8400 173.740 40 998 tokyo main 2729 2675 OOOO______O___ jtwc_wp WP151985 21.9000 173.800 45 0 22.0000 173.700 3 40 998 0 9 75 75 0 21.7000 173.600 2 38 998 21.7000 173.800 TS 35 1002 21.9000 173.800 2 45 10 63
1985240N09198 1985 77 WP MM SKIP 1985-09-05 03:00:00 TS 22.1366 174.221 main 2675 2631 PPPP______P___ WP151985 22.1973 174.290 45 0 22.1902 174.165 3 42 996 0 9 75 62 22.0328 174.144 2 43 996 22.0326 174.324 TS 37 998 22.2303 174.180 2 46 11 48
1985240N09198 1985 77 WP MM SKIP 1985-09-05 06:00:00 TS 22.5502 174.589 45 994 tokyo main 2630 2607 OOOO______P___ jtwc_wp WP151985 22.6000 174.600 45 0 22.5000 174.600 3 45 994 0 1 75 50 0 22.5000 174.600 3 48 994 22.5000 174.700 TS 40 994 22.6511 174.444 2 47 11 29
1985240N09198 1985 77 WP MM SKIP 1985-09-05 09:00:00 TS 23.0621 174.782 main 2607 2605 PPPP______P___ WP151985 23.0848 174.710 47 0 23.0774 174.932 3 52 989 0 1 87 62 22.9847 174.825 3 53 990 23.0423 174.833 TS 42 991 23.1214 174.611 2 48 11 12
1985240N09198 1985 77 WP MM SKIP 1985-09-05 12:00:00 TS 23.6000 174.840 60 985 tokyo main 2605 2604 OOOO______O___ jtwc_wp WP151985 23.6000 174.700 50 0 23.7000 175.100 4 60 985 9 40 40 1 100 75 0 23.5000 174.900 3 58 986 23.6000 174.800 TS 45 988 23.6000 174.700 2 50 10 3
1985240N09198 1985 77 WP MM SKIP 1985-09-05 15:00:00 TS 24.0628 174.831 main 2604 2604 PPPP______P___ WP151985 24.0650 174.715 52 0 24.1375 175.053 4 60 985 9 40 40 1 100 75 24.0224 174.945 3 58 987 24.0725 174.708 TS 47 987 24.0167 174.736 2 51 9 355
1985240N09198 1985 77 WP MM SKIP 1985-09-05 18:00:00 TS 24.4870 174.761 60 985 tokyo main 2605 2605 OOOO______P___ jtwc_wp WP151985 24.5000 174.700 55 0 24.5000 174.900 4 60 985 9 40 40 8 100 75 0 24.5000 174.900 3 58 988 24.5000 174.600 STS 50 987 24.4348 174.704 2 52 8 351
1985240N09198 1985 77 WP MM SKIP 1985-09-05 21:00:00 TS 24.8766 174.686 main 2616 2616 PPPP______P___ WP151985 24.9075 174.643 55 0 24.8500 174.800 4 55 987 9 8 100 75 24.8651 174.758 3 58 988 24.9000 174.585 STS 50 987 24.8605 174.645 2 53 8 351
1985240N09198 1985 77 WP MM SKIP 1985-09-06 00:00:00 TS 25.2600 174.620 50 990 tokyo main 2628 2628 OOOO______O___ jtwc_wp WP151985 25.3000 174.600 55 0 25.2000 174.700 4 50 990 0 8 100 75 0 25.2000 174.600 3 58 988 25.3000 174.600 STS 50 987 25.3000 174.600 2 55 8 353
1985240N09198 1985 77 WP MM SKIP 1985-09-06 03:00:00 TS 25.6447 174.588 main 2629 2629 PPPP______P___ WP151985 25.6775 174.635 55 0 25.5475 174.578 4 50 990 0 8 100 75 25.5625 174.513 3 58 988 25.7200 174.593 STS 52 986 25.7160 174.624 2 56 8 358
1985240N09198 1985 77 WP MM SKIP 1985-09-06 06:00:00 TS 26.0905 174.594 50 990 tokyo main 2633 2633 OOOO______P___ jtwc_wp WP151985 26.1000 174.700 55 0 26.0000 174.500 4 50 990 0 8 100 75 0 26.0000 174.500 3 58 988 26.2000 174.600 STS 55 986 26.1526 174.670 2 57 10 3
1985240N09198 1985 77 WP MM SKIP 1985-09-06 09:00:00 TS 26.6446 174.644 main 2638 2629 PPPP______P___ WP151985 26.6050 174.750 57 0 26.6625 174.520 4 50 990 0 8 100 75 26.5550 174.577 3 58 986 26.7625 174.642 STS 55 984 26.6379 174.731 2 58 12 5
1985240N09198 1985 77 WP MM SKIP 1985-09-06 12:00:00 TS 27.2800 174.720 50 990 tokyo main 2637 2633 OOOO______O___ jtwc_wp WP151985 27.2000 174.800 60 0 27.4000 174.600 4 50 990 0 8 100 75 0 27.2000 174.700 3 58 985 27.4000 174.700 STS 55 982 27.2000 174.800 2 60 13 5
1985240N09198 1985 77 WP MM SKIP 1985-09-06 15:00:00 TS 27.9429 174.770 main 2637 2637 PPPP______P___ WP151985 27.8625 174.843 62 0 28.0425 174.693 4 50 987 0 8 100 75 27.8700 174.785 3 58 982 28.0775 174.735 STS 57 981 27.8622 174.795 2 65 14 4
1985240N09198 1985 77 WP MM SKIP 1985-09-06 18:00:00 TS 28.6603 174.841 50 985 tokyo main 2651 2644 OOOO______P___ jtwc_wp WP151985 28.6000 174.900 65 1 28.7000 174.800 4 50 985 0 8 100 75 0 28.6000 174.900 3 58 980 28.8000 174.800 STS 60 980 28.6013 174.807 2 70 15 5
1985240N09198 1985 77 WP MM SKIP 1985-09-06 21:00:00 TS 29.4272 174.920 main 2657 2653 PPPP______P___ WP151985 29.3847 174.934 72 1 29.4345 174.827 4 60 980 0 8 125 87 29.3848 175.048 3 63 977 29.5423 174.898 STS 60 977 29.3898 174.890 2 75 16 9
1985240N09198 1985 77 WP MM SKIP 1985-09-07 00:00:00 TS 30.2200 175.120 70 975 tokyo main 2659 2642 OOOO______O___ jtwc_wp WP151985 30.2000 175.100 80 1 30.2000 175.000 5 70 975 1 100 50 1 150 100 0 30.2000 175.300 4 68 974 30.3000 175.100 STS 60 975 30.2000 175.100 4 80 17 19
1985240N09198 1985 77 WP MM SKIP 1985-09-07 03:00:00 TS 30.9943 175.527 main 2645 2620 PPPP______P___ WP151985 31.0001 175.525 77 1 30.9355 175.525 5 72 972 1 100 50 1 175 100 31.0074 175.690 4 68 972 31.0421 175.419 STS 65 972 30.9865 175.475 4 77 18 28
1985240N09198 1985 77 WP MM SKIP 1985-09-07 06:00:00 TS 31.7773 176.078 75 970 tokyo main 2618 2546 OOOO______P___ jtwc_wp WP151985 31.8000 176.100 75 1 31.7000 176.200 5 75 970 1 100 50 1 200 100 0 31.8000 176.200 4 68 970 31.8000 175.900 T 70 970 31.7864 175.988 4 75 19 32
1985240N09198 1985 77 WP MM SKIP 1985-09-07 09:00:00 TS 32.5649 176.673 main 2532 2438 PPPP______P___ WP151985 32.5996 176.664 72 1 32.5270 176.786 5 75 970 1 100 50 1 225 100 32.5122 176.757 4 68 970 32.5926 176.548 T 70 970 32.5930 176.607 4 72 19 34
1985240N09198 1985 77 WP MM SKIP 1985-09-07 12:00:00 TS 33.3789 177.342 75 970 tokyo main 2428 2321 OOOO______O___ jtwc_wp WP151985 33.4000 177.300 70 1 33.4000 177.400 5 75 970 1 100 50 1 250 100 0 33.3000 177.400 4 68 970 33.4000 177.300 T 70 970 33.4000 177.300 4 70 20 35
1985240N09198 1985 77 WP MM SKIP 1985-09-07 15:00:00 TS 34.2352 178.081 main 2318 2201 PPPP______P___ WP151985 34.1853 178.051 67 1 34.2926 178.100 5 70 970 1 100 50 1 250 100 34.3207 178.171 4 68 972 34.1777 178.073 T 67 970 34.1669 178.009 4 67 22 35
1985240N09198 1985 77 WP MM SKIP 1985-09-07 18:00:00 TS 35.1600 178.827 65 970 tokyo main 2190 2077 OOOO______O___ jtwc_wp WP151985 35.0000 178.800 65 1 35.2000 178.800 5 65 970 1 100 50 1 250 100 0 35.4000 178.900 4 68 975 35.0000 178.800 T 65 970 35.0000 178.800 4 65 22 30
1985240N09198 1985 77 WP MM SKIP 1985-09-07 21:00:00 TS 36.1398 179.436 main 2077 1967 PPPP______P___ WP151985 35.8514 179.296 62 0 36.0992 179.402 5 62 972 1 100 50 1 225 100 36.3789 179.376 4 63 977 35.9200 179.390 T 62 972 35.9624 179.671 4 62 21 26
1985240N09198 1985 77 WP MM SKIP 1985-09-08 00:00:00 TS 37.0900 179.970 60 975 tokyo main 1954 1837 OOOO______O___ cphc 36.8000 -180.000 60 0 37.0000 180.000 4 60 975 1 100 50 1 200 100 0 37.3000 179.800 3 58 980 36.9000 179.900 STS 60 975 37.0000 -179.400 5 60 21 28
1985240N09198 1985 77 EP CP SKIP 1985-09-08 03:00:00 TS 38.0207 180.695 main 1837 1722 PPP___________ 37.8727 -178.703 -1 37.9012 -179.329 4 60 977 1 100 50 1 200 100 38.1414 -179.679 3 58 980 STS 5 22 31
1985240N09198 1985 77 EP CP SKIP 1985-09-08 06:00:00 TS 38.9667 181.400 cphc main 1711 1579 OOO___________ cphc 39.0000 -177.000 -1 38.8000 181.400 3 60 980 1 100 50 1 200 100 0 39.0000 181.000 3 58 980 24 26
1985240N09198 1985 77 EP CP SKIP 1985-09-08 09:00:00 TS 40.2051 182.042 main 1568 1454 __P___________ -1 3 1 1 40.2051 -177.958 3 58 980 24 31
1985240N09198 1985 77 EP CP SKIP 1985-09-08 12:00:00 TS 41.0000 183.000 main 1454 1445 __O___________ -1 41.0000 183.000 3 58 980 12 67
1985240N09198 1985 77 EP CP SKIP 1985-09-08 15:00:00 TS 40.6853 183.520 main 1470 1470 __P___________ -1 40.6853 -176.480 3 53 985 11 159
1985240N09198 1985 77 EP CP SKIP 1985-09-08 18:00:00 TS 40.0000 183.500 main 1543 1543 __O___________ -1 40.0000 183.500 3 48 990 12 204
1985240N09198 1985 77 EP CP SKIP 1985-09-08 21:00:00 TS 39.6279 182.909 main 1602 1602 __P___________ -1 39.6279 -177.091 3 48 991 13 247
1985240N09198 1985 77 EP CP SKIP 1985-09-09 00:00:00 TS 39.5000 182.000 main 1640 __O___________ -1 39.5000 182.000 3 48 992 14 260

IBTrACS Databaseについて

本データベースは、米国NOAAが公開する1842年以降の世界の熱帯低気圧のベストトラックデータアーカイブInternational Best Track Archive for Climate Stewardship (IBTrACS)を、ウェブで閲覧しやすい形式に変換したものです。

最終更新日:2021-11-26